createdAt,value
2022-12-23T00:00:17.322Z,94649.00
2022-12-23T00:01:17.352Z,94649.00
2022-12-23T00:02:17.389Z,94643.00
2022-12-23T00:03:17.515Z,94643.00
2022-12-23T00:04:17.396Z,94635.00
2022-12-23T00:05:17.260Z,94633.00
2022-12-23T00:55:32.600Z,94612.00
2022-12-23T00:56:33.493Z,94612.00
2022-12-23T00:57:33.504Z,94620.00
2022-12-23T00:58:33.457Z,94621.00
2022-12-23T00:59:33.426Z,94620.00
2022-12-23T01:00:33.408Z,94620.00
2022-12-23T01:01:33.570Z,94625.00
2022-12-23T01:02:33.508Z,94629.00
2022-12-23T01:03:33.488Z,94635.00
2022-12-23T01:04:33.329Z,94633.00
2022-12-23T01:05:33.329Z,94643.00
2022-12-23T01:06:33.292Z,94643.00
2022-12-23T01:07:33.314Z,94645.00
2022-12-23T01:08:33.263Z,94645.00
2022-12-23T01:09:33.230Z,94645.00
2022-12-23T01:10:33.224Z,94643.00
2022-12-23T01:11:33.223Z,94645.00
2022-12-23T01:12:33.288Z,94643.00
2022-12-23T01:13:33.175Z,94633.00
2022-12-23T01:14:33.160Z,94631.00
2022-12-23T01:15:33.153Z,94629.00
2022-12-23T01:16:33.147Z,94627.00
2022-12-23T01:17:33.101Z,94633.00
2022-12-23T01:18:33.085Z,94635.00
2022-12-23T01:19:33.060Z,94633.00
2022-12-23T01:20:33.048Z,94629.00
2022-12-23T01:21:33.024Z,94627.00
2022-12-23T01:22:33.023Z,94629.00
2022-12-23T01:23:32.985Z,94625.00
2022-12-23T01:24:32.958Z,94618.00
2022-12-23T01:25:32.932Z,94616.00
2022-12-23T01:26:32.924Z,94620.00
2022-12-23T01:27:32.986Z,94621.00
2022-12-23T01:28:32.885Z,94621.00
2022-12-23T01:29:32.895Z,94620.00
2022-12-23T01:30:32.840Z,94614.00
2022-12-23T01:31:32.926Z,94610.00
2022-12-23T01:32:32.856Z,94604.00
2022-12-23T01:33:32.828Z,94604.00
2022-12-23T01:34:37.020Z,94606.00
2022-12-23T01:35:32.782Z,94608.00
2022-12-23T01:36:32.743Z,94614.00
2022-12-23T01:37:32.741Z,94614.00
2022-12-23T01:38:32.705Z,94614.00
2022-12-23T01:39:32.717Z,94616.00
2022-12-23T01:40:32.667Z,94608.00
2022-12-23T01:41:32.643Z,94610.00
2022-12-23T01:42:32.640Z,94606.00
2022-12-23T01:43:32.693Z,94610.00
2022-12-23T01:44:32.596Z,94620.00
2022-12-23T01:45:32.647Z,94623.00
2022-12-23T01:46:32.651Z,94627.00
2022-12-23T01:47:32.532Z,94627.00
2022-12-23T01:48:32.575Z,94629.00
2022-12-23T01:49:32.503Z,94629.00
2022-12-23T01:50:32.485Z,94629.00
2022-12-23T01:51:32.476Z,94625.00
2022-12-23T01:52:32.447Z,94620.00
2022-12-23T01:53:32.445Z,94621.00
2022-12-23T01:54:32.411Z,94629.00
2022-12-23T01:55:32.387Z,94631.00
2022-12-23T01:56:32.373Z,94633.00
2022-12-23T01:57:32.356Z,94643.00
2022-12-23T01:58:32.367Z,94647.00
2022-12-23T01:59:32.350Z,94649.00
2022-12-23T02:00:32.294Z,94645.00
2022-12-23T02:01:32.502Z,94649.00
2022-12-23T02:02:32.489Z,94659.00
2022-12-23T02:03:32.342Z,94655.00
2022-12-23T02:04:32.247Z,94649.00
2022-12-23T02:05:32.206Z,94647.00
2022-12-23T02:06:32.198Z,94653.00
2022-12-23T02:07:32.183Z,94653.00
2022-12-23T02:08:32.221Z,94655.00
2022-12-23T02:09:32.152Z,94657.00
2022-12-23T02:10:32.155Z,94655.00
2022-12-23T02:11:32.136Z,94651.00
2022-12-23T02:12:32.119Z,94649.00
2022-12-23T02:13:32.128Z,94645.00
2022-12-23T02:14:32.091Z,94635.00
2022-12-23T02:15:32.098Z,94643.00
2022-12-23T02:16:32.097Z,94649.00
2022-12-23T02:17:32.039Z,94645.00
2022-12-23T02:18:32.090Z,94645.00
2022-12-23T02:19:32.006Z,94635.00
2022-12-23T02:20:31.993Z,94635.00
2022-12-23T02:21:31.983Z,94631.00
2022-12-23T02:22:31.966Z,94645.00
2022-12-23T02:23:31.955Z,94653.00
2022-12-23T02:24:31.931Z,94653.00
2022-12-23T02:25:31.909Z,94651.00
2022-12-23T02:26:31.887Z,94649.00
2022-12-23T02:27:31.895Z,94649.00
2022-12-23T02:28:31.866Z,94657.00
2022-12-23T02:29:31.884Z,94659.00
2022-12-23T02:30:31.873Z,94661.00
2022-12-23T02:31:31.994Z,94653.00
2022-12-23T02:32:31.803Z,94657.00
2022-12-23T02:33:31.801Z,94665.00
2022-12-23T02:34:31.778Z,94672.00
2022-12-23T02:35:31.772Z,94670.00
2022-12-23T02:36:31.742Z,94666.00
2022-12-23T02:37:31.723Z,94665.00
2022-12-23T02:38:31.705Z,94663.00
2022-12-23T02:39:31.693Z,94659.00
2022-12-23T02:40:31.684Z,94661.00
2022-12-23T02:41:31.665Z,94655.00
2022-12-23T02:42:31.651Z,94649.00
2022-12-23T02:43:31.628Z,94653.00
2022-12-23T02:44:31.606Z,94647.00
2022-12-23T02:45:31.590Z,94647.00
2022-12-23T02:46:31.644Z,94643.00
2022-12-23T02:47:31.585Z,94645.00
2022-12-23T02:48:31.543Z,94645.00
2022-12-23T02:49:31.521Z,94651.00
2022-12-23T02:50:31.544Z,94655.00
2022-12-23T02:51:31.505Z,94655.00
2022-12-23T02:52:31.489Z,94659.00
2022-12-23T02:53:31.475Z,94665.00
2022-12-23T02:54:31.491Z,94665.00
2022-12-23T02:55:31.518Z,94661.00
2022-12-23T02:56:31.447Z,94659.00
2022-12-23T02:57:31.440Z,94659.00
2022-12-23T02:58:31.417Z,94665.00
2022-12-23T02:59:31.407Z,94666.00
2022-12-23T03:00:31.395Z,94670.00
2022-12-23T03:01:31.472Z,94674.00
2022-12-23T03:02:31.584Z,94670.00
2022-12-23T03:03:31.455Z,94666.00
2022-12-23T03:04:31.464Z,94668.00
2022-12-23T03:05:31.315Z,94663.00
2022-12-23T03:06:31.299Z,94663.00
2022-12-23T03:07:31.288Z,94659.00
2022-12-23T03:08:31.299Z,94659.00
2022-12-23T03:09:31.260Z,94665.00
2022-12-23T03:10:31.247Z,94663.00
2022-12-23T03:11:31.250Z,94661.00
2022-12-23T03:12:31.242Z,94657.00
2022-12-23T03:13:31.203Z,94655.00
2022-12-23T03:14:31.188Z,94657.00
2022-12-23T03:15:31.256Z,94657.00
2022-12-23T03:16:31.716Z,94655.00
2022-12-23T03:17:31.151Z,94659.00
2022-12-23T03:18:31.140Z,94657.00
2022-12-23T03:19:31.161Z,94659.00
2022-12-23T03:20:31.110Z,94663.00
2022-12-23T03:21:31.184Z,94665.00
2022-12-23T03:22:31.084Z,94663.00
2022-12-23T03:23:31.080Z,94663.00
2022-12-23T03:24:31.060Z,94659.00
2022-12-23T03:25:31.046Z,94663.00
2022-12-23T03:26:31.183Z,94661.00
2022-12-23T03:27:31.032Z,94661.00
2022-12-23T03:28:31.013Z,94659.00
2022-12-23T03:29:31.006Z,94659.00
2022-12-23T03:30:30.993Z,94663.00
2022-12-23T03:31:31.181Z,94665.00
2022-12-23T03:32:30.969Z,94665.00
2022-12-23T03:33:30.948Z,94665.00
2022-12-23T03:34:31.084Z,94663.00
2022-12-23T03:35:30.937Z,94661.00
2022-12-23T03:36:30.904Z,94657.00
2022-12-23T03:37:30.889Z,94655.00
2022-12-23T03:38:30.871Z,94657.00
2022-12-23T03:39:30.851Z,94657.00
2022-12-23T03:40:30.836Z,94657.00
2022-12-23T03:41:30.830Z,94653.00
2022-12-23T03:42:30.803Z,94653.00
2022-12-23T03:43:30.800Z,94659.00
2022-12-23T03:44:30.785Z,94661.00
2022-12-23T03:45:40.405Z,94659.00
2022-12-23T03:46:30.813Z,94661.00
2022-12-23T03:47:30.713Z,94665.00
2022-12-23T03:48:30.715Z,94668.00
2022-12-23T03:49:30.719Z,94668.00
2022-12-23T03:50:30.680Z,94666.00
2022-12-23T03:51:30.687Z,94666.00
2022-12-23T03:52:30.693Z,94665.00
2022-12-23T03:53:30.618Z,94665.00
2022-12-23T03:54:30.608Z,94663.00
2022-12-23T03:55:30.588Z,94655.00
2022-12-23T03:56:30.638Z,94655.00
2022-12-23T03:57:30.608Z,94657.00
2022-12-23T03:58:30.547Z,94663.00
2022-12-23T03:59:30.532Z,94657.00
2022-12-23T04:00:30.521Z,94653.00
2022-12-23T04:01:30.845Z,94649.00
2022-12-23T04:02:30.680Z,94649.00
2022-12-23T04:03:30.515Z,94655.00
2022-12-23T04:04:30.467Z,94657.00
2022-12-23T04:05:30.439Z,94659.00
2022-12-23T04:06:30.562Z,94659.00
2022-12-23T04:07:30.431Z,94657.00
2022-12-23T04:08:30.392Z,94653.00
2022-12-23T04:09:30.378Z,94647.00
2022-12-23T04:10:30.364Z,94651.00
2022-12-23T04:11:30.365Z,94651.00
2022-12-23T04:12:30.336Z,94653.00
2022-12-23T04:13:30.317Z,94663.00
2022-12-23T04:14:30.312Z,94661.00
2022-12-23T04:15:30.303Z,94663.00
2022-12-23T04:16:30.408Z,94663.00
2022-12-23T04:17:30.269Z,94668.00
2022-12-23T04:18:30.257Z,94676.00
2022-12-23T04:19:30.247Z,94676.00
2022-12-23T04:20:30.232Z,94674.00
2022-12-23T04:21:30.212Z,94674.00
2022-12-23T04:22:30.195Z,94670.00
2022-12-23T04:23:30.204Z,94668.00
2022-12-23T04:24:30.164Z,94668.00
2022-12-23T04:25:30.159Z,94663.00
2022-12-23T04:26:30.148Z,94657.00
2022-12-23T04:27:30.131Z,94659.00
2022-12-23T04:28:30.110Z,94657.00
2022-12-23T04:29:30.090Z,94657.00
2022-12-23T04:30:34.440Z,94657.00
2022-12-23T04:31:30.189Z,94661.00
2022-12-23T04:32:30.050Z,94661.00
2022-12-23T04:33:30.038Z,94665.00
2022-12-23T04:34:30.022Z,94670.00
2022-12-23T04:35:30.006Z,94678.00
2022-12-23T04:36:30.123Z,94682.00
2022-12-23T04:37:29.961Z,94674.00
2022-12-23T04:38:29.948Z,94674.00
2022-12-23T04:39:30.021Z,94678.00
2022-12-23T04:40:29.911Z,94682.00
2022-12-23T04:41:29.916Z,94680.00
2022-12-23T04:42:29.870Z,94674.00
2022-12-23T04:43:29.864Z,94670.00
2022-12-23T04:44:29.831Z,94682.00
2022-12-23T04:45:29.816Z,94690.00
2022-12-23T04:46:29.929Z,94698.00
2022-12-23T04:47:29.810Z,94692.00
2022-12-23T04:48:29.802Z,94684.00
2022-12-23T04:49:29.760Z,94674.00
2022-12-23T04:50:29.752Z,94670.00
2022-12-23T04:51:29.731Z,94680.00
2022-12-23T04:52:29.717Z,94688.00
2022-12-23T04:53:29.701Z,94688.00
2022-12-23T04:54:29.692Z,94686.00
2022-12-23T04:55:29.696Z,94686.00
2022-12-23T04:56:29.664Z,94688.00
2022-12-23T04:57:29.655Z,94690.00
2022-12-23T04:58:29.635Z,94688.00
2022-12-23T04:59:29.626Z,94682.00
2022-12-23T05:00:33.986Z,94678.00
2022-12-23T05:01:29.801Z,94684.00
2022-12-23T05:02:29.680Z,94690.00
2022-12-23T05:03:29.644Z,94686.00
2022-12-23T05:04:29.585Z,94686.00
2022-12-23T05:05:29.560Z,94684.00
2022-12-23T05:06:29.528Z,94682.00
2022-12-23T05:07:29.507Z,94688.00
2022-12-23T05:08:29.503Z,94690.00
2022-12-23T05:09:29.495Z,94688.00
2022-12-23T05:10:29.490Z,94688.00
2022-12-23T05:11:29.485Z,94684.00
2022-12-23T05:12:29.450Z,94690.00
2022-12-23T05:13:29.463Z,94688.00
2022-12-23T05:14:29.411Z,94692.00
2022-12-23T05:15:29.405Z,94688.00
2022-12-23T05:16:29.451Z,94692.00
2022-12-23T05:17:29.361Z,94694.00
2022-12-23T05:18:29.351Z,94692.00
2022-12-23T05:19:29.340Z,94690.00
2022-12-23T05:20:29.332Z,94692.00
2022-12-23T05:21:29.309Z,94686.00
2022-12-23T05:22:29.311Z,94686.00
2022-12-23T05:23:29.281Z,94682.00
2022-12-23T05:24:29.286Z,94682.00
2022-12-23T05:25:29.250Z,94686.00
2022-12-23T05:26:29.235Z,94690.00
2022-12-23T05:27:29.292Z,94694.00
2022-12-23T05:28:29.187Z,94696.00
2022-12-23T05:29:29.189Z,94702.00
2022-12-23T05:30:29.180Z,94702.00
2022-12-23T05:31:29.214Z,94702.00
2022-12-23T05:32:29.134Z,94702.00
2022-12-23T05:33:29.238Z,94700.00
2022-12-23T05:34:29.084Z,94696.00
2022-12-23T05:35:29.079Z,94694.00
2022-12-23T05:36:29.057Z,94692.00
2022-12-23T05:37:29.043Z,94690.00
2022-12-23T05:38:29.028Z,94686.00
2022-12-23T05:39:29.018Z,94694.00
2022-12-23T05:40:31.429Z,94702.00
2022-12-23T05:41:28.996Z,94706.00
2022-12-23T05:42:28.962Z,94706.00
2022-12-23T05:43:28.969Z,94708.00
2022-12-23T05:44:28.956Z,94700.00
2022-12-23T05:45:28.987Z,94704.00
2022-12-23T05:46:29.010Z,94710.00
2022-12-23T05:47:28.922Z,94712.00
2022-12-23T05:48:28.885Z,94710.00
2022-12-23T05:49:28.870Z,94704.00
2022-12-23T05:50:28.859Z,94700.00
2022-12-23T05:51:28.857Z,94706.00
2022-12-23T05:52:28.845Z,94708.00
2022-12-23T05:53:28.842Z,94704.00
2022-12-23T05:54:28.833Z,94696.00
2022-12-23T05:55:28.823Z,94694.00
2022-12-23T05:56:28.814Z,94688.00
2022-12-23T05:57:28.814Z,94690.00
2022-12-23T05:58:28.781Z,94690.00
2022-12-23T05:59:31.322Z,94692.00
2022-12-23T06:00:28.763Z,94692.00
2022-12-23T06:01:28.829Z,94694.00
2022-12-23T06:02:28.882Z,94698.00
2022-12-23T06:03:28.990Z,94712.00
2022-12-23T06:04:28.790Z,94715.00
2022-12-23T06:05:28.729Z,94723.00
2022-12-23T06:06:28.741Z,94723.00
2022-12-23T06:07:28.710Z,94719.00
2022-12-23T06:08:28.693Z,94717.00
2022-12-23T06:09:28.694Z,94719.00
2022-12-23T06:10:28.674Z,94712.00
2022-12-23T06:11:28.678Z,94712.00
2022-12-23T06:12:28.640Z,94713.00
2022-12-23T06:13:28.624Z,94712.00
2022-12-23T06:14:29.499Z,94710.00
2022-12-23T06:15:28.627Z,94708.00
2022-12-23T06:16:28.636Z,94710.00
2022-12-23T06:17:28.581Z,94713.00
2022-12-23T06:18:28.590Z,94715.00
2022-12-23T06:19:28.550Z,94713.00
2022-12-23T06:20:28.557Z,94713.00
2022-12-23T06:21:28.528Z,94719.00
2022-12-23T06:22:28.512Z,94727.00
2022-12-23T06:23:28.506Z,94733.00
2022-12-23T06:24:28.499Z,94733.00
2022-12-23T06:25:28.492Z,94733.00
2022-12-23T06:26:28.472Z,94739.00
2022-12-23T06:27:28.443Z,94743.00
2022-12-23T06:28:28.431Z,94749.00
2022-12-23T06:29:28.420Z,94749.00
2022-12-23T06:30:28.400Z,94753.00
2022-12-23T06:31:28.520Z,94747.00
2022-12-23T06:32:31.641Z,94745.00
2022-12-23T06:33:28.359Z,94741.00
2022-12-23T06:34:28.345Z,94743.00
2022-12-23T06:35:28.338Z,94743.00
2022-12-23T06:36:28.329Z,94745.00
2022-12-23T06:37:28.313Z,94749.00
2022-12-23T06:38:28.295Z,94751.00
2022-12-23T06:39:28.286Z,94751.00
2022-12-23T06:40:28.279Z,94747.00
2022-12-23T06:41:28.257Z,94751.00
2022-12-23T06:42:28.248Z,94753.00
2022-12-23T06:43:28.228Z,94755.00
2022-12-23T06:44:28.252Z,94751.00
2022-12-23T06:45:28.206Z,94747.00
2022-12-23T06:46:28.280Z,94745.00
2022-12-23T06:47:28.233Z,94751.00
2022-12-23T06:48:28.175Z,94753.00
2022-12-23T06:49:28.161Z,94757.00
2022-12-23T06:50:28.156Z,94759.00
2022-12-23T06:51:28.140Z,94764.00
2022-12-23T06:52:28.135Z,94766.00
2022-12-23T06:53:28.132Z,94768.00
2022-12-23T06:54:28.109Z,94768.00
2022-12-23T06:55:28.097Z,94768.00
2022-12-23T06:56:28.082Z,94770.00
2022-12-23T06:57:28.064Z,94772.00
2022-12-23T06:58:28.054Z,94776.00
2022-12-23T06:59:28.051Z,94780.00
2022-12-23T07:00:28.041Z,94786.00
2022-12-23T07:01:28.232Z,94786.00
2022-12-23T07:02:28.178Z,94786.00
2022-12-23T07:03:28.201Z,94788.00
2022-12-23T07:04:27.985Z,94788.00
2022-12-23T07:05:34.890Z,94788.00
2022-12-23T07:06:27.957Z,94792.00
2022-12-23T07:07:27.942Z,94790.00
2022-12-23T07:08:27.925Z,94796.00
2022-12-23T07:09:27.919Z,94796.00
2022-12-23T07:10:27.896Z,94794.00
2022-12-23T07:11:27.873Z,94792.00
2022-12-23T07:12:27.864Z,94788.00
2022-12-23T07:13:27.866Z,94786.00
2022-12-23T07:14:27.847Z,94786.00
2022-12-23T07:15:27.836Z,94786.00
2022-12-23T07:16:27.873Z,94784.00
2022-12-23T07:17:27.808Z,94790.00
2022-12-23T07:18:27.799Z,94790.00
2022-12-23T07:19:27.852Z,94786.00
2022-12-23T07:20:27.774Z,94790.00
2022-12-23T07:21:29.691Z,94784.00
2022-12-23T07:22:27.750Z,94782.00
2022-12-23T07:23:27.752Z,94782.00
2022-12-23T07:24:27.734Z,94784.00
2022-12-23T07:25:27.715Z,94788.00
2022-12-23T07:26:27.718Z,94792.00
2022-12-23T07:27:27.687Z,94792.00
2022-12-23T07:28:27.692Z,94792.00
2022-12-23T07:29:27.676Z,94790.00
2022-12-23T07:30:27.788Z,94788.00
2022-12-23T07:31:27.694Z,94790.00
2022-12-23T07:32:27.668Z,94792.00
2022-12-23T07:33:27.655Z,94790.00
2022-12-23T07:34:27.650Z,94788.00
2022-12-23T07:35:27.667Z,94790.00
2022-12-23T07:36:27.630Z,94784.00
2022-12-23T07:37:27.620Z,94782.00
2022-12-23T07:38:27.620Z,94782.00
2022-12-23T07:39:27.607Z,94778.00
2022-12-23T07:40:27.662Z,94778.00
2022-12-23T07:41:27.598Z,94776.00
2022-12-23T07:42:44.821Z,94774.00
2022-12-23T07:43:27.586Z,94774.00
2022-12-23T07:44:27.562Z,94776.00
2022-12-23T07:45:27.693Z,94774.00
2022-12-23T07:46:27.670Z,94776.00
2022-12-23T07:47:27.568Z,94770.00
2022-12-23T07:48:27.617Z,94770.00
2022-12-23T07:49:27.536Z,94768.00
2022-12-23T07:50:27.688Z,94770.00
2022-12-23T07:51:27.567Z,94776.00
2022-12-23T07:52:27.527Z,94776.00
2022-12-23T07:53:27.511Z,94780.00
2022-12-23T07:54:27.504Z,94784.00
2022-12-23T07:55:27.491Z,94786.00
2022-12-23T07:56:27.499Z,94788.00
2022-12-23T07:57:27.510Z,94784.00
2022-12-23T07:58:27.480Z,94776.00
2022-12-23T07:59:27.546Z,94778.00
2022-12-23T08:00:27.455Z,94778.00
2022-12-23T08:01:27.522Z,94780.00
2022-12-23T08:02:27.594Z,94782.00
2022-12-23T08:03:27.492Z,94786.00
2022-12-23T08:04:27.445Z,94788.00
2022-12-23T08:05:27.464Z,94792.00
2022-12-23T08:06:27.401Z,94792.00
2022-12-23T08:07:27.429Z,94788.00
2022-12-23T08:08:27.398Z,94788.00
2022-12-23T08:09:27.369Z,94790.00
2022-12-23T08:10:27.367Z,94792.00
2022-12-23T08:11:27.352Z,94788.00
2022-12-23T08:12:27.341Z,94788.00
2022-12-23T08:13:27.322Z,94790.00
2022-12-23T08:14:27.315Z,94794.00
2022-12-23T08:15:27.304Z,94796.00
2022-12-23T08:16:27.351Z,94798.00
2022-12-23T08:17:27.293Z,94796.00
2022-12-23T08:18:27.279Z,94796.00
2022-12-23T08:19:27.265Z,94794.00
2022-12-23T08:20:27.271Z,94790.00
2022-12-23T08:21:27.259Z,94788.00
2022-12-23T08:22:27.248Z,94784.00
2022-12-23T08:23:27.385Z,94784.00
2022-12-23T08:24:27.222Z,94784.00
2022-12-23T08:25:27.205Z,94788.00
2022-12-23T08:26:27.191Z,94790.00
2022-12-23T08:27:27.185Z,94784.00
2022-12-23T08:28:27.172Z,94784.00
2022-12-23T08:29:30.109Z,94782.00
2022-12-23T08:30:27.178Z,94786.00
2022-12-23T08:31:27.203Z,94784.00
2022-12-23T08:32:27.107Z,94784.00
2022-12-23T08:33:27.115Z,94786.00
2022-12-23T08:34:27.093Z,94788.00
2022-12-23T08:35:27.084Z,94788.00
2022-12-23T08:36:27.068Z,94790.00
2022-12-23T08:37:27.072Z,94790.00
2022-12-23T08:38:27.074Z,94788.00
2022-12-23T08:39:27.089Z,94792.00
2022-12-23T08:40:27.039Z,94800.00
2022-12-23T08:41:27.031Z,94804.00
2022-12-23T08:42:27.027Z,94806.00
2022-12-23T08:43:33.575Z,94802.00
2022-12-23T08:44:27.062Z,94804.00
2022-12-23T08:45:27.011Z,94804.00
2022-12-23T08:46:27.057Z,94804.00
2022-12-23T08:47:26.984Z,94807.00
2022-12-23T08:48:26.977Z,94807.00
2022-12-23T08:49:26.994Z,94802.00
2022-12-23T08:50:26.955Z,94800.00
2022-12-23T08:51:26.952Z,94802.00
2022-12-23T08:52:26.937Z,94802.00
2022-12-23T08:53:26.928Z,94804.00
2022-12-23T08:54:26.921Z,94798.00
2022-12-23T08:55:26.939Z,94790.00
2022-12-23T08:56:26.899Z,94790.00
2022-12-23T08:57:26.886Z,94794.00
2022-12-23T08:58:26.880Z,94800.00
2022-12-23T08:59:26.899Z,94807.00
2022-12-23T09:00:26.918Z,94809.00
2022-12-23T09:01:27.096Z,94806.00
2022-12-23T09:02:27.057Z,94806.00
2022-12-23T09:03:27.017Z,94807.00
2022-12-23T09:04:26.837Z,94809.00
2022-12-23T09:05:26.826Z,94806.00
2022-12-23T09:06:29.830Z,94809.00
2022-12-23T09:07:26.814Z,94811.00
2022-12-23T09:08:26.812Z,94811.00
2022-12-23T09:09:26.804Z,94807.00
2022-12-23T09:10:26.795Z,94798.00
2022-12-23T09:11:26.832Z,94800.00
2022-12-23T09:12:26.773Z,94796.00
2022-12-23T09:13:34.889Z,94798.00
2022-12-23T09:14:26.759Z,94790.00
2022-12-23T09:15:26.740Z,94790.00
2022-12-23T09:16:26.811Z,94794.00
2022-12-23T09:17:26.721Z,94792.00
2022-12-23T09:18:26.720Z,94792.00
2022-12-23T09:19:26.728Z,94796.00
2022-12-23T09:20:26.688Z,94800.00
2022-12-23T09:21:26.758Z,94802.00
2022-12-23T09:22:26.692Z,94798.00
2022-12-23T09:23:26.657Z,94794.00
2022-12-23T09:42:26.428Z,94798.00
2022-12-23T09:56:26.271Z,94800.00
2022-12-23T11:03:25.866Z,94778.00
2022-12-23T11:04:25.721Z,94778.00
2022-12-23T11:05:25.715Z,94778.00
2022-12-23T11:06:27.912Z,94778.00
2022-12-23T11:08:25.692Z,94778.00
2022-12-23T11:09:25.685Z,94776.00
2022-12-23T11:10:25.674Z,94770.00
2022-12-23T11:11:25.671Z,94774.00
2022-12-23T11:12:25.670Z,94772.00
2022-12-23T11:13:25.656Z,94774.00
2022-12-23T11:14:25.646Z,94772.00
2022-12-23T11:15:25.663Z,94772.00
2022-12-23T11:16:25.771Z,94768.00
2022-12-23T11:17:25.624Z,94764.00
2022-12-23T11:18:25.607Z,94762.00
2022-12-23T11:19:25.617Z,94764.00
2022-12-23T11:20:25.599Z,94764.00
2022-12-23T11:21:25.608Z,94764.00
2022-12-23T11:22:25.582Z,94764.00
2022-12-23T11:23:25.575Z,94762.00
2022-12-23T11:24:25.562Z,94762.00
2022-12-23T11:25:25.552Z,94760.00
2022-12-23T11:26:25.542Z,94760.00
2022-12-23T11:27:25.541Z,94760.00
2022-12-23T11:28:25.531Z,94759.00
2022-12-23T11:29:25.513Z,94759.00
2022-12-23T11:30:25.497Z,94759.00
2022-12-23T11:31:25.530Z,94760.00
2022-12-23T11:32:25.475Z,94762.00
2022-12-23T11:33:25.471Z,94757.00
2022-12-23T11:34:25.538Z,94759.00
2022-12-23T11:35:25.588Z,94757.00
2022-12-23T11:36:25.434Z,94759.00
2022-12-23T11:37:25.440Z,94757.00
2022-12-23T11:38:25.405Z,94753.00
2022-12-23T11:39:25.396Z,94753.00
2022-12-23T11:40:25.403Z,94751.00
2022-12-23T11:41:25.387Z,94749.00
2022-12-23T11:42:25.368Z,94749.00
2022-12-23T11:43:25.356Z,94749.00
2022-12-23T11:44:25.346Z,94753.00
2022-12-23T11:45:25.402Z,94753.00
2022-12-23T11:46:25.488Z,94753.00
2022-12-23T11:47:25.309Z,94751.00
2022-12-23T11:48:25.299Z,94751.00
2022-12-23T11:49:25.293Z,94753.00
2022-12-23T11:50:25.279Z,94751.00
2022-12-23T11:51:25.307Z,94751.00
2022-12-23T11:52:25.257Z,94751.00
2022-12-23T11:53:25.250Z,94749.00
2022-12-23T11:54:25.239Z,94745.00
2022-12-23T11:55:25.225Z,94745.00
2022-12-23T11:56:25.285Z,94743.00
2022-12-23T11:57:25.205Z,94745.00
2022-12-23T11:58:25.202Z,94743.00
2022-12-23T11:59:25.195Z,94743.00
2022-12-23T12:00:25.189Z,94737.00
2022-12-23T12:01:25.189Z,94739.00
2022-12-23T12:02:25.259Z,94739.00
2022-12-23T12:03:25.240Z,94737.00
2022-12-23T12:04:25.132Z,94741.00
2022-12-23T12:05:25.118Z,94737.00
2022-12-23T12:06:25.107Z,94739.00
2022-12-23T12:07:25.118Z,94737.00
2022-12-23T12:08:25.081Z,94735.00
2022-12-23T12:09:25.065Z,94733.00
2022-12-23T12:10:25.076Z,94731.00
2022-12-23T12:11:25.050Z,94727.00
2022-12-23T12:12:25.046Z,94729.00
2022-12-23T12:13:25.047Z,94729.00
2022-12-23T12:14:25.025Z,94731.00
2022-12-23T12:15:25.013Z,94733.00
2022-12-23T12:16:25.062Z,94733.00
2022-12-23T12:17:24.997Z,94731.00
2022-12-23T12:18:25.121Z,94733.00
2022-12-23T12:19:24.981Z,94731.00
2022-12-23T12:20:24.974Z,94727.00
2022-12-23T12:21:24.954Z,94727.00
2022-12-23T12:22:24.954Z,94725.00
2022-12-23T12:23:24.975Z,94721.00
2022-12-23T12:24:24.930Z,94719.00
2022-12-23T12:25:24.926Z,94717.00
2022-12-23T12:26:24.908Z,94712.00
2022-12-23T12:27:24.903Z,94708.00
2022-12-23T12:28:24.892Z,94706.00
2022-12-23T12:29:24.888Z,94704.00
2022-12-23T12:30:24.985Z,94702.00
2022-12-23T12:31:24.983Z,94698.00
2022-12-23T12:32:24.892Z,94698.00
2022-12-23T12:33:24.952Z,94694.00
2022-12-23T12:34:24.833Z,94694.00
2022-12-23T12:35:24.832Z,94692.00
2022-12-23T12:36:24.916Z,94692.00
2022-12-23T12:37:24.842Z,94690.00
2022-12-23T12:38:24.798Z,94692.00
2022-12-23T12:39:24.812Z,94692.00
2022-12-23T12:40:24.774Z,94696.00
2022-12-23T12:41:24.776Z,94696.00
2022-12-23T12:42:24.758Z,94694.00
2022-12-23T12:43:24.810Z,94694.00
2022-12-23T12:44:24.729Z,94694.00
2022-12-23T12:45:24.717Z,94692.00
2022-12-23T12:46:24.819Z,94694.00
2022-12-23T12:48:24.684Z,94694.00
2022-12-23T12:49:24.673Z,94694.00
2022-12-23T12:50:24.654Z,94694.00
2022-12-23T12:51:24.633Z,94690.00
2022-12-23T12:52:24.618Z,94690.00
2022-12-23T12:53:24.749Z,94686.00
2022-12-23T12:54:24.591Z,94686.00
2022-12-23T12:55:24.608Z,94686.00
2022-12-23T12:56:24.557Z,94684.00
2022-12-23T12:57:24.554Z,94684.00
2022-12-23T12:58:24.541Z,94680.00
2022-12-23T12:59:24.509Z,94676.00
2022-12-23T13:00:24.522Z,94678.00
2022-12-23T13:01:24.537Z,94678.00
2022-12-23T13:02:24.492Z,94674.00
2022-12-23T13:03:24.485Z,94676.00
2022-12-23T13:04:24.435Z,94674.00
2022-12-23T13:05:24.425Z,94674.00
2022-12-23T13:06:24.402Z,94672.00
2022-12-23T13:07:24.419Z,94672.00
2022-12-23T13:08:24.380Z,94670.00
2022-12-23T13:09:24.366Z,94670.00
2022-12-23T13:10:24.352Z,94672.00
2022-12-23T13:11:28.324Z,94670.00
2022-12-23T13:12:24.333Z,94670.00
2022-12-23T13:13:24.505Z,94670.00
2022-12-23T13:14:24.327Z,94670.00
2022-12-23T13:15:24.284Z,94668.00
2022-12-23T13:16:24.365Z,94668.00
2022-12-23T13:17:24.256Z,94666.00
2022-12-23T13:18:24.240Z,94666.00
2022-12-23T13:19:24.233Z,94663.00
2022-12-23T13:20:24.214Z,94661.00
2022-12-23T13:21:24.200Z,94659.00
2022-12-23T13:22:24.182Z,94657.00
2022-12-23T13:23:45.581Z,94657.00
2022-12-23T13:24:24.156Z,94655.00
2022-12-23T13:25:24.133Z,94653.00
2022-12-23T13:26:24.117Z,94649.00
2022-12-23T13:27:24.127Z,94647.00
2022-12-23T13:28:24.076Z,94645.00
2022-12-23T13:29:24.079Z,94645.00
2022-12-23T13:30:24.043Z,94647.00
2022-12-23T13:31:24.098Z,94645.00
2022-12-23T13:32:24.011Z,94647.00
2022-12-23T13:33:24.078Z,94647.00
2022-12-23T13:34:24.021Z,94643.00
2022-12-23T13:35:23.958Z,94635.00
2022-12-23T13:36:23.997Z,94631.00
2022-12-23T13:37:23.921Z,94631.00
2022-12-23T13:38:23.927Z,94629.00
2022-12-23T13:39:23.896Z,94623.00
2022-12-23T13:40:23.874Z,94623.00
2022-12-23T13:41:23.865Z,94621.00
2022-12-23T13:42:23.862Z,94620.00
2022-12-23T13:43:23.902Z,94618.00
2022-12-23T13:44:23.798Z,94621.00
2022-12-23T13:45:23.794Z,94618.00
2022-12-23T13:46:23.856Z,94614.00
2022-12-23T13:47:23.780Z,94612.00
2022-12-23T13:48:23.791Z,94606.00
2022-12-23T13:49:23.760Z,94602.00
2022-12-23T13:50:23.727Z,94596.00
2022-12-23T13:51:23.712Z,94594.00
2022-12-23T13:52:23.705Z,94594.00
2022-12-23T13:53:23.712Z,94598.00
2022-12-23T13:54:23.678Z,94596.00
2022-12-23T13:55:23.667Z,94596.00
2022-12-23T13:56:23.652Z,94596.00
2022-12-23T13:57:23.636Z,94594.00
2022-12-23T13:58:23.626Z,94592.00
2022-12-23T13:59:23.626Z,94594.00
2022-12-23T14:00:23.584Z,94594.00
2022-12-23T14:01:23.595Z,94596.00
2022-12-23T14:02:23.608Z,94594.00
2022-12-23T14:03:23.564Z,94600.00
2022-12-23T14:04:23.533Z,94598.00
2022-12-23T14:05:23.523Z,94596.00
2022-12-23T14:06:23.545Z,94598.00
2022-12-23T14:07:23.494Z,94594.00
2022-12-23T14:08:23.502Z,94598.00
2022-12-23T14:09:23.474Z,94602.00
2022-12-23T14:10:23.459Z,94604.00
2022-12-23T14:11:23.473Z,94604.00
2022-12-23T14:12:23.465Z,94604.00